createdAt,value
2019-03-09T00:00:56.383Z,4.90
2019-03-09T00:03:24.408Z,4.90
2019-03-09T00:06:13.448Z,4.90
2019-03-09T00:08:41.037Z,4.90
2019-03-09T00:11:08.914Z,4.90
2019-03-09T00:13:36.805Z,4.90
2019-03-09T00:16:04.653Z,4.90
2019-03-09T00:18:32.503Z,5.00
2019-03-09T00:21:00.376Z,5.00
2019-03-09T00:23:44.257Z,4.90
2019-03-09T00:26:40.083Z,4.90
2019-03-09T00:29:20.895Z,4.90
2019-03-09T00:31:55.194Z,4.90
2019-03-09T00:34:23.061Z,4.90
2019-03-09T00:36:50.928Z,5.00
2019-03-09T00:39:18.793Z,5.00
2019-03-09T00:41:46.691Z,5.10
2019-03-09T00:44:14.537Z,5.20
2019-03-09T00:46:42.386Z,5.30
2019-03-09T00:49:11.281Z,5.40
2019-03-09T00:51:39.506Z,5.50
2019-03-09T00:54:07.467Z,5.70
2019-03-09T00:56:35.409Z,5.70
2019-03-09T00:59:03.295Z,5.90
2019-03-09T01:01:31.191Z,6.00
2019-03-09T01:03:59.053Z,6.00
2019-03-09T01:06:26.935Z,6.00
2019-03-09T01:08:54.793Z,6.00
2019-03-09T01:11:22.701Z,6.10
2019-03-09T01:13:50.567Z,6.20
2019-03-09T01:16:18.443Z,6.20
2019-03-09T01:18:46.339Z,6.30
2019-03-09T01:21:14.205Z,6.40
2019-03-09T01:23:42.073Z,6.50
2019-03-09T01:26:09.922Z,6.50
2019-03-09T01:28:37.751Z,6.50
2019-03-09T01:31:05.618Z,6.60
2019-03-09T01:33:33.490Z,6.60
2019-03-09T01:36:01.424Z,6.50
2019-03-09T01:38:29.430Z,6.50
2019-03-09T01:40:57.444Z,6.50
2019-03-09T01:43:25.313Z,6.50
2019-03-09T01:45:53.161Z,6.50
2019-03-09T01:48:21.003Z,6.50
2019-03-09T01:50:48.845Z,6.50
2019-03-09T01:53:16.746Z,6.50
2019-03-09T01:55:44.624Z,6.60
2019-03-09T01:58:12.476Z,6.70
2019-03-09T02:00:40.455Z,6.80
2019-03-09T02:03:08.359Z,6.80
2019-03-09T02:05:36.227Z,6.70
2019-03-09T02:08:04.098Z,6.80
2019-03-09T02:10:31.969Z,6.90
2019-03-09T02:12:59.882Z,6.90
2019-03-09T02:15:27.709Z,6.90
2019-03-09T02:17:55.571Z,6.90
2019-03-09T02:20:23.457Z,6.90
2019-03-09T02:22:51.322Z,6.90
2019-03-09T02:25:19.240Z,6.90
2019-03-09T02:27:47.152Z,6.80
2019-03-09T02:30:15.024Z,6.80
2019-03-09T02:32:42.861Z,6.80
2019-03-09T02:35:10.814Z,6.80
2019-03-09T02:37:38.678Z,6.70
2019-03-09T02:40:12.130Z,6.70
2019-03-09T02:42:39.990Z,6.70
2019-03-09T02:45:07.917Z,6.70
2019-03-09T02:47:35.837Z,6.70
2019-03-09T02:50:03.852Z,6.70
2019-03-09T02:52:31.718Z,6.80
2019-03-09T02:54:59.593Z,6.70
2019-03-09T02:57:27.504Z,6.70
2019-03-09T02:59:55.390Z,6.70
2019-03-09T03:02:42.297Z,6.60
2019-03-09T03:05:10.222Z,6.60
2019-03-09T03:07:38.094Z,6.60
2019-03-09T03:10:05.949Z,6.60
2019-03-09T03:12:33.847Z,6.60
2019-03-09T03:15:01.790Z,6.60
2019-03-09T03:17:29.674Z,6.60
2019-03-09T03:19:57.562Z,6.60
2019-03-09T03:22:25.429Z,6.60
2019-03-09T03:24:53.279Z,6.60
2019-03-09T03:27:21.204Z,6.60
2019-03-09T03:29:49.105Z,6.60
2019-03-09T03:32:16.954Z,6.60
2019-03-09T03:34:44.797Z,6.60
2019-03-09T03:37:12.669Z,6.60
2019-03-09T03:39:40.643Z,6.50
2019-03-09T03:42:08.570Z,6.50
2019-03-09T03:44:44.602Z,6.50
2019-03-09T03:47:12.449Z,6.50
2019-03-09T03:49:40.330Z,6.50
2019-03-09T03:52:08.194Z,6.50
2019-03-09T03:54:36.069Z,6.50
2019-03-09T03:57:03.898Z,6.40
2019-03-09T03:59:31.749Z,6.40
2019-03-09T04:01:59.630Z,6.40
2019-03-09T04:04:27.520Z,6.40
2019-03-09T04:06:55.524Z,6.40
2019-03-09T04:09:23.481Z,6.50
2019-03-09T04:11:51.333Z,6.50
2019-03-09T04:14:19.172Z,6.50
2019-03-09T04:16:47.009Z,6.50
2019-03-09T04:19:15.022Z,6.60
2019-03-09T04:21:42.948Z,6.50
2019-03-09T04:24:10.849Z,6.50
2019-03-09T04:26:38.731Z,6.50
2019-03-09T04:29:06.693Z,6.50
2019-03-09T04:31:34.607Z,6.50
2019-03-09T04:34:02.466Z,6.50
2019-03-09T04:36:30.437Z,6.50
2019-03-09T04:38:58.319Z,6.50
2019-03-09T04:41:26.247Z,6.50
2019-03-09T04:43:54.107Z,6.60
2019-03-09T04:46:21.982Z,6.60
2019-03-09T04:48:49.821Z,6.60
2019-03-09T04:51:17.736Z,6.60
2019-03-09T04:53:45.606Z,6.60
2019-03-09T04:56:13.474Z,6.60
2019-03-09T04:58:41.382Z,6.60
2019-03-09T05:01:09.326Z,6.60
2019-03-09T05:03:37.298Z,6.60
2019-03-09T05:06:05.170Z,6.60
2019-03-09T05:08:33.013Z,6.60
2019-03-09T05:11:00.918Z,6.60
2019-03-09T05:13:28.760Z,6.60
2019-03-09T05:15:56.670Z,6.60
2019-03-09T05:18:24.652Z,6.60
2019-03-09T05:20:52.507Z,6.60
2019-03-09T05:23:20.316Z,6.60
2019-03-09T05:25:48.280Z,6.70
2019-03-09T05:28:16.110Z,6.60
2019-03-09T05:30:43.987Z,6.70
2019-03-09T05:33:11.911Z,6.70
2019-03-09T05:35:39.787Z,6.70
2019-03-09T05:38:07.627Z,6.70
2019-03-09T05:40:35.543Z,6.70
2019-03-09T05:43:03.358Z,6.70
2019-03-09T05:45:31.322Z,6.70
2019-03-09T05:47:59.149Z,6.70
2019-03-09T05:50:27.017Z,6.70
2019-03-09T05:52:55.078Z,6.80
2019-03-09T05:55:22.902Z,6.90
2019-03-09T05:57:50.810Z,6.90
2019-03-09T06:00:18.744Z,6.90
2019-03-09T06:02:46.580Z,6.90
2019-03-09T06:05:14.437Z,6.90
2019-03-09T06:07:42.312Z,6.90
2019-03-09T06:10:10.138Z,7.00
2019-03-09T06:12:37.974Z,7.00
2019-03-09T06:15:05.814Z,7.10
2019-03-09T06:17:33.663Z,7.10
2019-03-09T06:20:01.509Z,7.10
2019-03-09T06:22:29.344Z,7.20
2019-03-09T06:24:57.220Z,7.30
2019-03-09T06:27:25.075Z,7.40
2019-03-09T06:29:52.947Z,7.40
2019-03-09T06:32:20.911Z,7.40
2019-03-09T06:34:48.945Z,7.40
2019-03-09T06:37:16.892Z,7.50
2019-03-09T06:39:44.835Z,7.50
2019-03-09T06:42:12.726Z,7.60
2019-03-09T06:44:40.567Z,7.60
2019-03-09T06:47:08.446Z,7.60
2019-03-09T06:49:36.286Z,7.60
2019-03-09T06:52:04.176Z,7.60
2019-03-09T06:54:32.071Z,7.70
2019-03-09T06:56:59.911Z,7.70
2019-03-09T06:59:27.904Z,7.90
2019-03-09T07:01:55.780Z,7.90
2019-03-09T07:04:23.668Z,7.90
2019-03-09T07:06:51.559Z,7.90
2019-03-09T07:09:19.415Z,8.00
2019-03-09T07:11:47.270Z,8.00
2019-03-09T07:14:15.135Z,8.00
2019-03-09T07:16:42.995Z,8.00
2019-03-09T07:19:10.852Z,8.10
2019-03-09T07:21:38.669Z,8.10
2019-03-09T07:24:06.533Z,8.10
2019-03-09T07:26:34.386Z,8.10
2019-03-09T07:29:02.344Z,8.20
2019-03-09T07:31:30.277Z,8.20
2019-03-09T07:33:58.152Z,8.30
2019-03-09T07:36:26.030Z,8.30
2019-03-09T07:38:53.962Z,8.40
2019-03-09T07:41:21.837Z,8.40
2019-03-09T07:43:49.681Z,8.50
2019-03-09T07:46:17.510Z,8.60
2019-03-09T07:48:45.355Z,8.70
2019-03-09T07:51:13.237Z,8.70
2019-03-09T07:53:41.097Z,8.80
2019-03-09T07:56:08.921Z,8.80
2019-03-09T07:58:36.873Z,8.90
2019-03-09T08:01:04.792Z,9.00
2019-03-09T08:03:32.657Z,9.00
2019-03-09T08:06:00.591Z,9.10
2019-03-09T08:08:28.441Z,9.20
2019-03-09T08:10:56.269Z,9.20
2019-03-09T08:13:24.145Z,9.20
2019-03-09T08:15:51.978Z,9.20
2019-03-09T08:18:19.856Z,9.30
2019-03-09T08:20:47.782Z,9.30
2019-03-09T08:23:15.649Z,9.30
2019-03-09T08:25:43.577Z,9.30
2019-03-09T08:28:11.423Z,9.30
2019-03-09T08:30:39.320Z,9.40
2019-03-09T08:33:07.269Z,9.40
2019-03-09T08:35:35.194Z,9.50
2019-03-09T08:38:03.059Z,9.40
2019-03-09T08:40:30.888Z,9.40
2019-03-09T08:42:58.770Z,9.50
2019-03-09T08:45:26.661Z,9.50
2019-03-09T08:47:54.555Z,9.60
2019-03-09T08:50:22.459Z,9.50
2019-03-09T08:52:50.347Z,9.50
2019-03-09T08:55:18.378Z,9.50
2019-03-09T08:57:46.490Z,9.60
2019-03-09T09:00:14.398Z,9.60
2019-03-09T09:02:44.099Z,9.60
2019-03-09T09:05:12.104Z,9.60
2019-03-09T09:07:39.956Z,9.70
2019-03-09T09:10:07.828Z,9.70
2019-03-09T09:12:35.705Z,9.80
2019-03-09T09:15:03.759Z,9.80
2019-03-09T09:17:31.659Z,9.80
2019-03-09T09:19:59.511Z,9.80
2019-03-09T09:22:27.361Z,10.00
2019-03-09T09:24:55.208Z,10.00
2019-03-09T09:27:23.195Z,10.00
2019-03-09T09:29:51.065Z,10.10
2019-03-09T09:32:19.006Z,10.10
2019-03-09T09:34:46.855Z,10.10
2019-03-09T09:37:14.715Z,10.10
2019-03-09T09:39:42.640Z,10.30
2019-03-09T09:42:10.594Z,10.30
2019-03-09T09:44:38.448Z,10.40
2019-03-09T09:47:06.351Z,10.50
2019-03-09T09:49:34.307Z,10.50
2019-03-09T09:52:02.363Z,10.50
2019-03-09T09:54:30.254Z,10.50
2019-03-09T09:56:58.217Z,10.60
2019-03-09T09:59:26.229Z,10.60
2019-03-09T10:01:54.287Z,10.50
2019-03-09T10:04:22.345Z,10.60
2019-03-09T10:06:50.220Z,10.60
2019-03-09T10:09:18.199Z,10.70
2019-03-09T10:11:46.153Z,10.70
2019-03-09T10:14:14.220Z,10.90
2019-03-09T10:16:42.224Z,10.90
2019-03-09T10:19:11.220Z,11.00
2019-03-09T10:21:39.430Z,11.10
2019-03-09T10:24:07.372Z,11.20
2019-03-09T10:26:35.303Z,11.30
2019-03-09T10:29:03.330Z,11.30
2019-03-09T10:31:31.288Z,11.30
2019-03-09T10:33:59.180Z,11.30
2019-03-09T10:36:27.031Z,11.30
2019-03-09T10:38:54.913Z,11.30
2019-03-09T10:41:22.804Z,11.20
2019-03-09T10:43:50.663Z,11.20
2019-03-09T10:46:18.550Z,11.20
2019-03-09T10:48:46.604Z,11.20
2019-03-09T10:51:14.807Z,11.00
2019-03-09T10:53:42.811Z,10.90
2019-03-09T10:56:10.760Z,10.90
2019-03-09T10:58:38.749Z,10.90
2019-03-09T11:01:06.846Z,11.00
2019-03-09T11:03:34.805Z,11.10
2019-03-09T11:06:02.807Z,11.10
2019-03-09T11:08:30.839Z,11.10
2019-03-09T11:10:58.894Z,11.10
2019-03-09T11:13:51.938Z,11.10
2019-03-09T11:16:15.638Z,11.10
2019-03-09T11:18:43.677Z,11.00
2019-03-09T11:21:11.735Z,11.00
2019-03-09T11:23:39.873Z,11.00
2019-03-09T11:26:08.147Z,11.00
2019-03-09T11:28:36.142Z,11.10
2019-03-09T11:31:04.224Z,11.00
2019-03-09T11:33:32.301Z,11.00
2019-03-09T11:36:00.224Z,11.00
2019-03-09T11:38:28.137Z,10.90
2019-03-09T11:40:58.622Z,10.90
2019-03-09T11:43:25.753Z,10.80
2019-03-09T11:45:53.753Z,10.70
2019-03-09T11:48:21.780Z,10.70
2019-03-09T11:50:49.837Z,10.70
2019-03-09T11:53:17.802Z,10.60
2019-03-09T11:55:45.862Z,10.60
2019-03-09T11:58:13.855Z,10.60
2019-03-09T12:00:42.513Z,10.70
2019-03-09T12:03:10.512Z,10.70
2019-03-09T12:05:38.505Z,10.70
2019-03-09T12:08:06.568Z,10.80
2019-03-09T12:10:34.543Z,10.80
2019-03-09T12:13:02.566Z,10.80
2019-03-09T12:15:30.560Z,10.80
2019-03-09T12:17:58.438Z,11.00
2019-03-09T12:20:28.254Z,10.90
2019-03-09T12:23:01.231Z,11.00
2019-03-09T12:25:26.049Z,11.10
2019-03-09T12:27:53.994Z,11.10
2019-03-09T12:30:22.033Z,11.20
2019-03-09T12:32:50.112Z,11.20
2019-03-09T12:35:18.146Z,11.20
2019-03-09T12:37:46.322Z,11.20
2019-03-09T12:40:14.283Z,11.10
2019-03-09T12:42:42.267Z,11.10
2019-03-09T12:45:10.243Z,11.10
2019-03-09T12:47:38.360Z,11.00
2019-03-09T12:50:06.443Z,10.90
2019-03-09T12:52:34.349Z,10.80
2019-03-09T12:55:02.397Z,10.70
2019-03-09T12:57:30.513Z,10.70
2019-03-09T12:59:58.524Z,10.60
2019-03-09T13:02:26.621Z,10.60
2019-03-09T13:04:54.662Z,10.50
2019-03-09T13:07:22.736Z,10.50
2019-03-09T13:09:50.718Z,10.50
2019-03-09T13:12:18.824Z,10.50
2019-03-09T13:14:46.888Z,10.60
2019-03-09T13:17:15.026Z,10.70
2019-03-09T13:19:43.051Z,10.80
2019-03-09T13:22:11.028Z,11.00
2019-03-09T13:24:38.978Z,11.10
2019-03-09T13:27:07.075Z,11.20
2019-03-09T13:29:35.027Z,11.20
2019-03-09T13:32:02.987Z,11.20
2019-03-09T13:34:31.172Z,11.30
2019-03-09T13:36:59.256Z,11.30
2019-03-09T13:39:27.231Z,11.30
2019-03-09T13:41:55.458Z,11.40
2019-03-09T13:44:23.413Z,11.40
2019-03-09T13:46:51.385Z,11.40
2019-03-09T13:49:19.363Z,11.50
2019-03-09T13:51:47.473Z,11.50
2019-03-09T13:54:15.397Z,11.70
2019-03-09T13:56:43.413Z,11.90
2019-03-09T13:59:11.454Z,12.10
2019-03-09T14:01:39.393Z,12.40
2019-03-09T14:04:07.396Z,12.70
2019-03-09T14:06:35.492Z,12.80
2019-03-09T14:09:03.883Z,12.90
2019-03-09T14:11:31.873Z,12.90
2019-03-09T14:13:59.854Z,13.20
2019-03-09T14:16:27.916Z,13.30
2019-03-09T14:18:55.951Z,13.20
2019-03-09T14:21:24.015Z,13.00
2019-03-09T14:23:51.979Z,12.80
2019-03-09T14:26:19.997Z,12.60
2019-03-09T14:28:48.036Z,12.40
2019-03-09T14:31:16.158Z,12.30
2019-03-09T14:33:44.095Z,12.10
2019-03-09T14:36:12.040Z,12.00
2019-03-09T14:38:40.001Z,12.00
2019-03-09T14:41:08.101Z,12.00
2019-03-09T14:43:36.142Z,12.10
2019-03-09T14:46:04.177Z,12.40
2019-03-09T14:48:32.232Z,12.60
2019-03-09T14:51:00.296Z,12.80
2019-03-09T14:53:28.197Z,12.70
2019-03-09T14:55:56.191Z,12.70
2019-03-09T14:58:24.243Z,13.00
2019-03-09T15:00:52.149Z,13.30
2019-03-09T15:03:20.051Z,13.70
2019-03-09T15:05:47.928Z,13.90
2019-03-09T15:08:16.151Z,14.00
2019-03-09T15:10:44.195Z,13.80
2019-03-09T15:13:12.212Z,13.70
2019-03-09T15:15:40.272Z,13.40
2019-03-09T15:18:08.255Z,13.30
2019-03-09T15:20:36.245Z,13.20
2019-03-09T15:23:04.181Z,13.40
2019-03-09T15:25:32.206Z,13.40
2019-03-09T15:28:00.165Z,13.20
2019-03-09T15:30:28.074Z,12.90
2019-03-09T15:32:56.082Z,12.80
2019-03-09T15:35:24.049Z,12.50
2019-03-09T15:37:52.106Z,12.20
2019-03-09T15:40:20.147Z,12.00
2019-03-09T15:42:48.226Z,11.70
2019-03-09T15:45:16.312Z,11.50
2019-03-09T15:47:44.363Z,11.70
2019-03-09T15:50:12.447Z,12.30
2019-03-09T15:52:40.429Z,13.00
2019-03-09T15:55:08.491Z,12.90
2019-03-09T15:57:36.628Z,13.10
2019-03-09T16:00:04.722Z,14.00
2019-03-09T16:02:32.723Z,14.30
2019-03-09T16:05:00.770Z,14.60
2019-03-09T16:07:28.843Z,14.20
2019-03-09T16:09:56.877Z,13.80
2019-03-09T16:12:24.977Z,13.20
2019-03-09T16:14:53.116Z,12.80
2019-03-09T16:17:21.202Z,12.40
2019-03-09T16:19:49.308Z,12.10
2019-03-09T16:22:17.468Z,11.90
2019-03-09T16:24:45.406Z,11.70
2019-03-09T16:27:13.612Z,11.60
2019-03-09T16:29:41.533Z,11.50
2019-03-09T16:32:09.496Z,11.30
2019-03-09T16:34:37.449Z,11.30
2019-03-09T16:37:05.354Z,11.20
2019-03-09T16:39:33.386Z,11.20
2019-03-09T16:42:01.340Z,11.10
2019-03-09T16:44:29.421Z,11.20
2019-03-09T16:46:57.288Z,11.10
2019-03-09T16:49:25.338Z,11.10
2019-03-09T16:51:53.392Z,11.00
2019-03-09T16:54:21.714Z,10.90
2019-03-09T16:56:49.831Z,10.90
2019-03-09T16:59:17.736Z,10.90
2019-03-09T17:01:45.732Z,10.90
2019-03-09T17:04:13.737Z,10.70
2019-03-09T17:06:43.684Z,10.70
2019-03-09T17:09:11.439Z,10.60
2019-03-09T17:11:39.461Z,10.60
2019-03-09T17:14:07.478Z,10.60
2019-03-09T17:16:35.474Z,10.60
2019-03-09T17:19:03.379Z,10.60
2019-03-09T17:21:31.441Z,10.60
2019-03-09T17:23:59.494Z,10.50
2019-03-09T17:26:27.617Z,10.50
2019-03-09T17:28:55.782Z,10.50
2019-03-09T17:31:23.690Z,10.50
2019-03-09T17:33:51.708Z,10.50
2019-03-09T17:36:19.747Z,10.50
2019-03-09T17:38:47.844Z,10.30
2019-03-09T17:41:15.881Z,10.40
2019-03-09T17:43:43.916Z,10.40
2019-03-09T17:46:11.995Z,10.30
2019-03-09T17:48:40.098Z,10.30
2019-03-09T17:51:08.194Z,10.20
2019-03-09T17:53:36.328Z,10.30
2019-03-09T17:56:04.431Z,10.30
2019-03-09T17:58:32.628Z,10.20
2019-03-09T18:01:00.777Z,10.10
2019-03-09T18:03:28.978Z,10.10
2019-03-09T18:05:57.047Z,10.10
2019-03-09T18:08:25.152Z,10.10
2019-03-09T18:10:53.270Z,10.10
2019-03-09T18:13:21.507Z,10.20
2019-03-09T18:15:49.657Z,10.10
2019-03-09T18:18:17.885Z,10.10
2019-03-09T18:20:45.955Z,10.10
2019-03-09T18:23:14.055Z,10.00
2019-03-09T18:25:42.066Z,10.00
2019-03-09T18:28:10.163Z,10.10
2019-03-09T18:30:38.272Z,10.20
2019-03-09T18:33:06.355Z,10.20
2019-03-09T18:35:34.409Z,10.20
2019-03-09T18:38:02.386Z,10.10
2019-03-09T18:40:30.465Z,10.10
2019-03-09T18:42:58.520Z,10.10
2019-03-09T18:45:26.610Z,10.20
2019-03-09T18:47:54.719Z,10.20
2019-03-09T18:50:22.708Z,10.20
2019-03-09T18:52:50.801Z,10.20
2019-03-09T18:55:18.835Z,10.10
2019-03-09T18:57:47.393Z,10.20
2019-03-09T19:00:15.575Z,10.20
2019-03-09T19:02:43.687Z,10.20
2019-03-09T19:05:11.844Z,10.10
2019-03-09T19:07:39.954Z,10.10
2019-03-09T19:10:08.287Z,10.10
2019-03-09T19:12:36.405Z,10.10
2019-03-09T19:15:04.424Z,10.10
2019-03-09T19:17:32.701Z,10.10
2019-03-09T19:20:01.773Z,10.10
2019-03-09T19:22:29.790Z,10.10
2019-03-09T19:24:57.675Z,10.10
2019-03-09T19:27:25.638Z,10.20
2019-03-09T19:29:53.527Z,10.20
2019-03-09T19:32:21.408Z,10.10
2019-03-09T19:34:49.260Z,10.10
2019-03-09T19:37:17.134Z,10.00
2019-03-09T19:39:45.032Z,10.10
2019-03-09T19:42:12.879Z,10.10
2019-03-09T19:44:40.761Z,10.00
2019-03-09T19:47:08.626Z,10.10
2019-03-09T19:49:36.739Z,10.10
2019-03-09T19:52:04.771Z,10.10
2019-03-09T19:54:34.128Z,10.00
2019-03-09T19:57:04.544Z,10.00
2019-03-09T19:59:32.441Z,9.90
2019-03-09T20:02:00.560Z,9.90
2019-03-09T20:04:28.571Z,9.90
2019-03-09T20:06:56.595Z,9.90
2019-03-09T20:09:24.683Z,9.90
2019-03-09T20:11:52.670Z,9.90
2019-03-09T20:14:20.804Z,9.90
2019-03-09T20:16:48.722Z,9.90
2019-03-09T20:19:16.657Z,9.90
2019-03-09T20:21:44.758Z,9.90
2019-03-09T20:24:12.814Z,9.90
2019-03-09T20:26:40.805Z,10.00
2019-03-09T20:29:08.874Z,9.90
2019-03-09T20:31:36.888Z,9.90
2019-03-09T20:34:04.861Z,9.90
2019-03-09T20:36:32.817Z,9.90
2019-03-09T20:39:00.909Z,9.90
2019-03-09T20:41:29.067Z,9.90
2019-03-09T20:43:57.088Z,9.90
2019-03-09T20:46:25.083Z,9.90
2019-03-09T20:48:53.142Z,9.90
2019-03-09T20:51:21.345Z,9.80
2019-03-09T20:53:49.505Z,9.90
2019-03-09T20:56:17.544Z,9.90
2019-03-09T20:58:45.556Z,9.90
2019-03-09T21:01:13.559Z,9.90
2019-03-09T21:03:41.635Z,9.90
2019-03-09T21:06:09.610Z,9.70
2019-03-09T21:08:39.574Z,9.70
2019-03-09T21:11:07.540Z,9.60
2019-03-09T21:13:35.403Z,9.60
2019-03-09T21:16:03.288Z,9.60
2019-03-09T21:18:31.156Z,9.60
2019-03-09T21:20:59.036Z,9.60
2019-03-09T21:23:26.907Z,9.60
2019-03-09T21:25:54.804Z,9.60
2019-03-09T21:28:22.747Z,9.60
2019-03-09T21:30:50.632Z,9.60
2019-03-09T21:33:18.570Z,9.70
2019-03-09T21:35:46.446Z,9.60
2019-03-09T21:38:14.338Z,9.60
2019-03-09T21:40:42.184Z,9.50
2019-03-09T21:43:10.050Z,9.50
2019-03-09T21:45:37.938Z,9.50
2019-03-09T21:48:05.840Z,9.50
2019-03-09T21:50:33.797Z,9.40
2019-03-09T21:53:01.640Z,9.40
2019-03-09T21:55:29.536Z,9.30
2019-03-09T21:57:57.420Z,9.40
2019-03-09T22:00:25.318Z,9.30
2019-03-09T22:02:53.151Z,9.30
2019-03-09T22:05:21.040Z,9.40
2019-03-09T22:07:49.012Z,9.50
2019-03-09T22:10:16.980Z,9.60
2019-03-09T22:12:44.966Z,9.50
2019-03-09T22:15:12.835Z,9.60
2019-03-09T22:17:40.672Z,9.50
2019-03-09T22:20:08.830Z,9.60
2019-03-09T22:22:36.798Z,9.60
2019-03-09T22:25:04.732Z,9.60
2019-03-09T22:27:32.618Z,9.50
2019-03-09T22:30:00.482Z,9.50
2019-03-09T22:32:28.367Z,9.60
2019-03-09T22:34:56.242Z,9.70
2019-03-09T22:37:24.285Z,9.70
2019-03-09T22:39:52.236Z,9.70
2019-03-09T22:42:20.126Z,9.70
2019-03-09T22:44:48.070Z,9.70
2019-03-09T22:47:15.950Z,9.70
2019-03-09T22:49:43.889Z,9.70
2019-03-09T22:52:11.744Z,9.70
2019-03-09T22:54:39.712Z,9.80
2019-03-09T22:57:07.630Z,9.80
2019-03-09T22:59:35.562Z,9.80
2019-03-09T23:02:03.620Z,9.70
2019-03-09T23:04:31.498Z,9.70
2019-03-09T23:06:59.408Z,9.80
2019-03-09T23:09:27.349Z,9.80
2019-03-09T23:11:55.323Z,9.70
2019-03-09T23:14:23.196Z,9.80
2019-03-09T23:16:51.076Z,9.70
2019-03-09T23:19:18.932Z,9.70
2019-03-09T23:21:46.808Z,9.70
2019-03-09T23:24:14.690Z,9.70
2019-03-09T23:26:42.600Z,9.70
2019-03-09T23:29:10.466Z,9.70
2019-03-09T23:31:38.349Z,9.80
2019-03-09T23:34:06.216Z,9.70
2019-03-09T23:36:34.103Z,9.70
2019-03-09T23:39:01.957Z,9.80
2019-03-09T23:41:29.825Z,9.80
2019-03-09T23:43:57.703Z,9.80
2019-03-09T23:46:25.587Z,9.80
2019-03-09T23:48:53.476Z,9.70
2019-03-09T23:51:21.337Z,9.70
2019-03-09T23:53:49.231Z,9.70
2019-03-09T23:56:17.155Z,9.70
2019-03-09T23:58:45.132Z,9.70
